sensor_id;sensor_type;location;lat;lon;timestamp;pressure;altitude;pressure_sealevel;temperature;humidity
22872;BME280;11603;44.910;8.630;2023-05-09T00:01:47;100764.72;;;18.54;100.00
22872;BME280;11603;44.910;8.630;2023-05-09T00:04:12;100766.69;;;18.52;100.00
22872;BME280;11603;44.910;8.630;2023-05-09T00:06:38;100769.69;;;18.49;100.00
22872;BME280;11603;44.910;8.630;2023-05-09T00:09:03;100766.53;;;18.44;100.00
22872;BME280;11603;44.910;8.630;2023-05-09T00:11:29;100764.69;;;18.45;100.00
22872;BME280;11603;44.910;8.630;2023-05-09T00:13:55;100769.13;;;18.46;100.00
22872;BME280;11603;44.910;8.630;2023-05-09T00:16:21;100768.25;;;18.45;100.00
22872;BME280;11603;44.910;8.630;2023-05-09T00:18:48;100759.56;;;18.42;100.00
22872;BME280;11603;44.910;8.630;2023-05-09T00:21:13;100767.38;;;18.35;100.00
22872;BME280;11603;44.910;8.630;2023-05-09T00:23:39;100765.25;;;18.29;100.00
22872;BME280;11603;44.910;8.630;2023-05-09T00:26:05;100769.22;;;18.25;100.00
22872;BME280;11603;44.910;8.630;2023-05-09T00:28:30;100769.38;;;18.24;100.00
22872;BME280;11603;44.910;8.630;2023-05-09T00:30:56;100771.94;;;18.25;100.00
22872;BME280;11603;44.910;8.630;2023-05-09T00:33:22;100772.38;;;18.30;100.00
22872;BME280;11603;44.910;8.630;2023-05-09T00:35:52;100767.81;;;18.40;100.00
22872;BME280;11603;44.910;8.630;2023-05-09T00:38:18;100773.25;;;18.50;100.00
22872;BME280;11603;44.910;8.630;2023-05-09T00:40:43;100775.09;;;18.49;100.00
22872;BME280;11603;44.910;8.630;2023-05-09T00:43:09;100771.41;;;18.50;100.00
22872;BME280;11603;44.910;8.630;2023-05-09T00:45:35;100779.66;;;18.49;100.00
22872;BME280;11603;44.910;8.630;2023-05-09T00:48:00;100778.53;;;18.51;100.00
22872;BME280;11603;44.910;8.630;2023-05-09T00:50:26;100772.72;;;18.56;100.00
22872;BME280;11603;44.910;8.630;2023-05-09T00:52:51;100768.72;;;18.60;100.00
22872;BME280;11603;44.910;8.630;2023-05-09T00:55:18;100773.88;;;18.63;100.00
22872;BME280;11603;44.910;8.630;2023-05-09T00:57:43;100771.72;;;18.67;100.00
22872;BME280;11603;44.910;8.630;2023-05-09T01:00:10;100773.13;;;18.71;100.00
22872;BME280;11603;44.910;8.630;2023-05-09T01:02:39;100772.72;;;18.66;100.00
22872;BME280;11603;44.910;8.630;2023-05-09T01:05:05;100773.56;;;18.56;100.00
22872;BME280;11603;44.910;8.630;2023-05-09T01:07:54;100763.41;;;18.49;100.00
22872;BME280;11603;44.910;8.630;2023-05-09T01:10:44;100768.25;;;18.45;100.00
22872;BME280;11603;44.910;8.630;2023-05-09T01:16:01;100758.16;;;18.47;100.00
22872;BME280;11603;44.910;8.630;2023-05-09T01:18:48;100767.09;;;18.48;100.00
22872;BME280;11603;44.910;8.630;2023-05-09T01:21:23;100757.84;;;18.50;100.00
22872;BME280;11603;44.910;8.630;2023-05-09T01:24:01;100764.13;;;18.41;100.00
22872;BME280;11603;44.910;8.630;2023-05-09T01:26:57;100764.56;;;18.37;100.00
22872;BME280;11603;44.910;8.630;2023-05-09T01:32:09;100758.81;;;18.20;100.00
22872;BME280;11603;44.910;8.630;2023-05-09T01:34:42;100750.66;;;18.11;100.00
22872;BME280;11603;44.910;8.630;2023-05-09T01:37:08;100744.13;;;18.04;100.00
22872;BME280;11603;44.910;8.630;2023-05-09T01:39:38;100754.63;;;17.97;100.00
22872;BME280;11603;44.910;8.630;2023-05-09T01:42:07;100749.94;;;17.90;100.00
22872;BME280;11603;44.910;8.630;2023-05-09T01:44:41;100736.78;;;17.85;100.00
22872;BME280;11603;44.910;8.630;2023-05-09T01:47:08;100745.91;;;17.84;100.00
22872;BME280;11603;44.910;8.630;2023-05-09T01:49:35;100744.66;;;17.88;100.00
22872;BME280;11603;44.910;8.630;2023-05-09T01:52:08;100749.19;;;17.88;100.00
22872;BME280;11603;44.910;8.630;2023-05-09T01:54:35;100743.59;;;17.79;100.00
22872;BME280;11603;44.910;8.630;2023-05-09T01:57:03;100750.44;;;17.74;100.00
22872;BME280;11603;44.910;8.630;2023-05-09T01:59:32;100751.84;;;17.68;100.00
22872;BME280;11603;44.910;8.630;2023-05-09T02:02:00;100755.78;;;17.64;100.00
22872;BME280;11603;44.910;8.630;2023-05-09T02:04:27;100753.25;;;17.63;100.00
22872;BME280;11603;44.910;8.630;2023-05-09T02:06:56;100766.78;;;17.63;100.00
22872;BME280;11603;44.910;8.630;2023-05-09T02:09:23;100756.81;;;17.63;100.00
22872;BME280;11603;44.910;8.630;2023-05-09T02:11:48;100755.09;;;17.62;100.00
22872;BME280;11603;44.910;8.630;2023-05-09T02:14:14;100749.63;;;17.53;100.00
22872;BME280;11603;44.910;8.630;2023-05-09T02:16:40;100756.59;;;17.55;100.00
22872;BME280;11603;44.910;8.630;2023-05-09T02:19:06;100756.47;;;17.57;100.00
22872;BME280;11603;44.910;8.630;2023-05-09T02:21:31;100751.19;;;17.55;100.00
22872;BME280;11603;44.910;8.630;2023-05-09T02:23:57;100764.56;;;17.57;100.00
22872;BME280;11603;44.910;8.630;2023-05-09T02:26:27;100767.41;;;17.55;100.00
22872;BME280;11603;44.910;8.630;2023-05-09T02:28:54;100766.38;;;17.47;100.00
22872;BME280;11603;44.910;8.630;2023-05-09T02:31:21;100774.91;;;17.42;100.00
22872;BME280;11603;44.910;8.630;2023-05-09T02:33:48;100767.66;;;17.43;100.00
22872;BME280;11603;44.910;8.630;2023-05-09T02:36:16;100762.25;;;17.43;100.00
22872;BME280;11603;44.910;8.630;2023-05-09T02:38:42;100765.06;;;17.41;100.00
22872;BME280;11603;44.910;8.630;2023-05-09T02:41:15;100762.16;;;17.33;100.00
22872;BME280;11603;44.910;8.630;2023-05-09T02:43:41;100767.19;;;17.38;100.00
22872;BME280;11603;44.910;8.630;2023-05-09T02:46:08;100765.94;;;17.42;100.00
22872;BME280;11603;44.910;8.630;2023-05-09T02:48:34;100767.66;;;17.43;100.00
22872;BME280;11603;44.910;8.630;2023-05-09T02:51:00;100780.59;;;17.49;100.00
22872;BME280;11603;44.910;8.630;2023-05-09T02:53:26;100784.50;;;17.56;100.00
22872;BME280;11603;44.910;8.630;2023-05-09T02:55:51;100792.22;;;17.60;100.00
22872;BME280;11603;44.910;8.630;2023-05-09T02:58:18;100781.00;;;17.65;100.00
22872;BME280;11603;44.910;8.630;2023-05-09T03:00:44;100789.28;;;17.63;100.00
22872;BME280;11603;44.910;8.630;2023-05-09T03:03:11;100782.41;;;17.59;100.00
22872;BME280;11603;44.910;8.630;2023-05-09T03:05:37;100777.97;;;17.58;100.00
22872;BME280;11603;44.910;8.630;2023-05-09T03:08:03;100777.00;;;17.59;100.00
22872;BME280;11603;44.910;8.630;2023-05-09T03:10:29;100773.69;;;17.56;100.00
22872;BME280;11603;44.910;8.630;2023-05-09T03:12:55;100772.94;;;17.54;100.00
22872;BME280;11603;44.910;8.630;2023-05-09T03:15:20;100764.81;;;17.54;100.00
22872;BME280;11603;44.910;8.630;2023-05-09T03:17:46;100764.81;;;17.54;100.00
22872;BME280;11603;44.910;8.630;2023-05-09T03:20:13;100762.69;;;17.48;100.00
22872;BME280;11603;44.910;8.630;2023-05-09T03:22:40;100763.81;;;17.45;100.00
22872;BME280;11603;44.910;8.630;2023-05-09T03:25:08;100772.19;;;17.42;100.00
22872;BME280;11603;44.910;8.630;2023-05-09T03:27:34;100771.34;;;17.42;100.00
22872;BME280;11603;44.910;8.630;2023-05-09T03:30:01;100774.03;;;17.42;100.00
22872;BME280;11603;44.910;8.630;2023-05-09T03:32:27;100772.00;;;17.34;100.00
22872;BME280;11603;44.910;8.630;2023-05-09T03:34:53;100770.56;;;17.30;100.00
22872;BME280;11603;44.910;8.630;2023-05-09T03:37:19;100762.97;;;17.24;100.00
22872;BME280;11603;44.910;8.630;2023-05-09T03:39:45;100761.66;;;17.18;100.00
22872;BME280;11603;44.910;8.630;2023-05-09T03:42:10;100765.09;;;17.20;100.00
22872;BME280;11603;44.910;8.630;2023-05-09T03:44:38;100755.41;;;17.18;100.00
22872;BME280;11603;44.910;8.630;2023-05-09T03:47:03;100752.69;;;17.18;100.00
22872;BME280;11603;44.910;8.630;2023-05-09T03:49:35;100755.81;;;17.13;100.00
22872;BME280;11603;44.910;8.630;2023-05-09T03:52:02;100756.09;;;17.10;100.00
22872;BME280;11603;44.910;8.630;2023-05-09T03:54:28;100751.06;;;17.06;100.00
22872;BME280;11603;44.910;8.630;2023-05-09T03:56:54;100760.00;;;17.06;100.00
22872;BME280;11603;44.910;8.630;2023-05-09T03:59:19;100753.22;;;17.12;100.00
22872;BME280;11603;44.910;8.630;2023-05-09T04:01:45;100757.25;;;17.17;100.00
22872;BME280;11603;44.910;8.630;2023-05-09T04:04:11;100755.84;;;17.23;100.00
22872;BME280;11603;44.910;8.630;2023-05-09T04:06:37;100764.69;;;17.25;100.00
22872;BME280;11603;44.910;8.630;2023-05-09T04:09:05;100763.56;;;17.27;100.00
22872;BME280;11603;44.910;8.630;2023-05-09T04:11:31;100757.91;;;17.30;100.00
22872;BME280;11603;44.910;8.630;2023-05-09T04:13:58;100765.16;;;17.30;100.00
22872;BME280;11603;44.910;8.630;2023-05-09T04:16:29;100768.97;;;17.27;100.00
22872;BME280;11603;44.910;8.630;2023-05-09T04:18:54;100785.81;;;17.31;100.00
22872;BME280;11603;44.910;8.630;2023-05-09T04:21:21;100786.19;;;17.26;100.00
22872;BME280;11603;44.910;8.630;2023-05-09T04:23:48;100777.69;;;17.31;100.00
22872;BME280;11603;44.910;8.630;2023-05-09T04:26:16;100773.31;;;17.40;100.00
22872;BME280;11603;44.910;8.630;2023-05-09T04:28:44;100770.06;;;17.46;100.00
22872;BME280;11603;44.910;8.630;2023-05-09T04:31:12;100767.69;;;17.52;100.00
22872;BME280;11603;44.910;8.630;2023-05-09T04:33:40;100773.97;;;17.53;100.00
22872;BME280;11603;44.910;8.630;2023-05-09T04:36:06;100777.72;;;17.61;100.00
22872;BME280;11603;44.910;8.630;2023-05-09T04:38:32;100781.59;;;17.68;100.00
22872;BME280;11603;44.910;8.630;2023-05-09T04:40:58;100785.00;;;17.70;100.00
22872;BME280;11603;44.910;8.630;2023-05-09T04:43:23;100771.06;;;17.75;100.00
22872;BME280;11603;44.910;8.630;2023-05-09T04:45:52;100775.50;;;17.76;100.00
22872;BME280;11603;44.910;8.630;2023-05-09T04:48:18;100774.81;;;17.74;100.00
22872;BME280;11603;44.910;8.630;2023-05-09T04:50:44;100767.13;;;17.79;100.00
22872;BME280;11603;44.910;8.630;2023-05-09T04:53:12;100769.53;;;17.82;100.00
22872;BME280;11603;44.910;8.630;2023-05-09T04:55:39;100767.69;;;17.83;100.00
22872;BME280;11603;44.910;8.630;2023-05-09T04:58:04;100761.28;;;17.84;100.00
22872;BME280;11603;44.910;8.630;2023-05-09T05:00:30;100763.72;;;17.87;100.00
22872;BME280;11603;44.910;8.630;2023-05-09T05:02:57;100762.84;;;17.86;100.00
22872;BME280;11603;44.910;8.630;2023-05-09T05:05:25;100764.44;;;17.89;100.00
22872;BME280;11603;44.910;8.630;2023-05-09T05:07:50;100760.31;;;17.85;100.00
22872;BME280;11603;44.910;8.630;2023-05-09T05:10:20;100755.88;;;17.84;100.00
22872;BME280;11603;44.910;8.630;2023-05-09T05:12:53;100757.59;;;17.85;100.00
22872;BME280;11603;44.910;8.630;2023-05-09T05:15:22;100759.28;;;17.86;100.00
22872;BME280;11603;44.910;8.630;2023-05-09T05:17:48;100763.84;;;17.85;100.00
22872;BME280;11603;44.910;8.630;2023-05-09T05:20:17;100766.41;;;17.87;100.00
22872;BME280;11603;44.910;8.630;2023-05-09T05:22:44;100775.09;;;17.90;100.00
22872;BME280;11603;44.910;8.630;2023-05-09T05:25:10;100773.44;;;17.89;100.00
22872;BME280;11603;44.910;8.630;2023-05-09T05:27:47;100774.97;;;17.92;100.00
22872;BME280;11603;44.910;8.630;2023-05-09T05:30:13;100768.44;;;17.85;100.00
22872;BME280;11603;44.910;8.630;2023-05-09T05:32:40;100765.66;;;17.75;100.00
22872;BME280;11603;44.910;8.630;2023-05-09T05:35:06;100771.97;;;17.85;100.00
22872;BME280;11603;44.910;8.630;2023-05-09T05:37:39;100771.72;;;17.98;100.00
22872;BME280;11603;44.910;8.630;2023-05-09T05:40:10;100777.59;;;18.03;100.00
22872;BME280;11603;44.910;8.630;2023-05-09T05:42:39;100778.03;;;18.08;100.00
22872;BME280;11603;44.910;8.630;2023-05-09T05:45:06;100781.47;;;18.10;100.00
22872;BME280;11603;44.910;8.630;2023-05-09T05:47:36;100785.31;;;18.17;100.00
22872;BME280;11603;44.910;8.630;2023-05-09T05:50:04;100783.75;;;18.24;100.00
22872;BME280;11603;44.910;8.630;2023-05-09T05:52:39;100778.34;;;18.34;100.00
22872;BME280;11603;44.910;8.630;2023-05-09T05:55:08;100787.78;;;18.39;100.00
22872;BME280;11603;44.910;8.630;2023-05-09T05:57:34;100785.38;;;18.46;100.00
22872;BME280;11603;44.910;8.630;2023-05-09T06:00:02;100784.53;;;18.55;100.00
22872;BME280;11603;44.910;8.630;2023-05-09T06:02:41;100788.97;;;18.66;100.00
22872;BME280;11603;44.910;8.630;2023-05-09T06:05:17;100792.97;;;18.61;100.00
22872;BME280;11603;44.910;8.630;2023-05-09T06:07:43;100785.53;;;18.63;100.00
22872;BME280;11603;44.910;8.630;2023-05-09T06:10:09;100797.97;;;18.66;100.00
22872;BME280;11603;44.910;8.630;2023-05-09T06:12:34;100797.41;;;18.63;100.00
22872;BME280;11603;44.910;8.630;2023-05-09T06:15:00;100789.97;;;18.65;100.00
22872;BME280;11603;44.910;8.630;2023-05-09T06:17:26;100782.81;;;18.63;100.00
22872;BME280;11603;44.910;8.630;2023-05-09T06:19:54;100787.13;;;18.56;100.00
22872;BME280;11603;44.910;8.630;2023-05-09T06:22:19;100794.06;;;18.49;100.00
22872;BME280;11603;44.910;8.630;2023-05-09T06:24:45;100781.66;;;18.47;100.00
22872;BME280;11603;44.910;8.630;2023-05-09T06:27:11;100782.66;;;18.46;100.00
22872;BME280;11603;44.910;8.630;2023-05-09T06:29:36;100781.25;;;18.51;100.00
22872;BME280;11603;44.910;8.630;2023-05-09T06:32:02;100783.97;;;18.61;100.00
22872;BME280;11603;44.910;8.630;2023-05-09T06:34:28;100777.84;;;18.59;100.00
22872;BME280;11603;44.910;8.630;2023-05-09T06:36:53;100786.56;;;18.63;100.00
22872;BME280;11603;44.910;8.630;2023-05-09T06:39:18;100774.56;;;18.75;100.00
22872;BME280;11603;44.910;8.630;2023-05-09T06:41:44;100776.84;;;18.79;100.00
22872;BME280;11603;44.910;8.630;2023-05-09T06:44:10;100768.88;;;18.78;100.00
22872;BME280;11603;44.910;8.630;2023-05-09T06:46:35;100768.69;;;18.79;100.00
22872;BME280;11603;44.910;8.630;2023-05-09T06:49:01;100776.13;;;18.87;100.00
22872;BME280;11603;44.910;8.630;2023-05-09T06:51:27;100768.41;;;19.01;100.00
22872;BME280;11603;44.910;8.630;2023-05-09T06:53:52;100772.81;;;19.12;100.00
22872;BME280;11603;44.910;8.630;2023-05-09T06:56:18;100765.94;;;19.18;100.00
22872;BME280;11603;44.910;8.630;2023-05-09T06:58:45;100779.91;;;19.23;100.00
22872;BME280;11603;44.910;8.630;2023-05-09T07:01:13;100772.19;;;19.28;100.00
22872;BME280;11603;44.910;8.630;2023-05-09T07:03:39;100777.50;;;19.29;100.00
22872;BME280;11603;44.910;8.630;2023-05-09T07:06:04;100771.50;;;19.26;100.00
22872;BME280;11603;44.910;8.630;2023-05-09T07:08:30;100772.94;;;19.20;100.00
22872;BME280;11603;44.910;8.630;2023-05-09T07:10:56;100767.94;;;19.25;100.00
22872;BME280;11603;44.910;8.630;2023-05-09T07:13:22;100771.94;;;19.31;100.00
22872;BME280;11603;44.910;8.630;2023-05-09T07:15:47;100767.06;;;19.34;100.00
22872;BME280;11603;44.910;8.630;2023-05-09T07:18:13;100766.91;;;19.45;100.00
22872;BME280;11603;44.910;8.630;2023-05-09T07:20:38;100761.72;;;19.42;100.00
22872;BME280;11603;44.910;8.630;2023-05-09T07:23:04;100769.00;;;19.42;100.00
22872;BME280;11603;44.910;8.630;2023-05-09T07:25:30;100772.56;;;19.62;100.00
22872;BME280;11603;44.910;8.630;2023-05-09T07:27:55;100770.84;;;19.61;100.00
22872;BME280;11603;44.910;8.630;2023-05-09T07:30:21;100767.28;;;19.60;100.00
22872;BME280;11603;44.910;8.630;2023-05-09T07:32:46;100776.81;;;19.64;100.00
22872;BME280;11603;44.910;8.630;2023-05-09T07:35:12;100771.00;;;19.59;100.00
22872;BME280;11603;44.910;8.630;2023-05-09T07:37:37;100767.72;;;19.56;100.00
22872;BME280;11603;44.910;8.630;2023-05-09T07:40:03;100772.25;;;19.65;100.00
22872;BME280;11603;44.910;8.630;2023-05-09T07:42:30;100765.81;;;19.66;100.00
22872;BME280;11603;44.910;8.630;2023-05-09T07:44:57;100758.34;;;19.77;100.00
22872;BME280;11603;44.910;8.630;2023-05-09T07:47:23;100755.19;;;19.82;100.00
22872;BME280;11603;44.910;8.630;2023-05-09T07:49:49;100754.72;;;19.86;100.00
22872;BME280;11603;44.910;8.630;2023-05-09T07:52:14;100758.59;;;19.84;100.00
22872;BME280;11603;44.910;8.630;2023-05-09T07:54:41;100751.56;;;19.91;100.00
22872;BME280;11603;44.910;8.630;2023-05-09T07:57:06;100746.06;;;20.01;100.00
22872;BME280;11603;44.910;8.630;2023-05-09T07:59:32;100748.81;;;20.18;100.00
22872;BME280;11603;44.910;8.630;2023-05-09T08:01:57;100755.13;;;20.19;100.00
22872;BME280;11603;44.910;8.630;2023-05-09T08:04:23;100752.19;;;20.30;100.00
22872;BME280;11603;44.910;8.630;2023-05-09T08:06:48;100748.03;;;20.36;100.00
22872;BME280;11603;44.910;8.630;2023-05-09T08:09:14;100747.94;;;20.45;100.00
22872;BME280;11603;44.910;8.630;2023-05-09T08:11:39;100749.94;;;20.43;100.00
22872;BME280;11603;44.910;8.630;2023-05-09T08:14:05;100740.66;;;20.46;100.00
22872;BME280;11603;44.910;8.630;2023-05-09T08:16:30;100737.84;;;20.55;100.00
22872;BME280;11603;44.910;8.630;2023-05-09T08:18:55;100752.22;;;20.65;100.00
22872;BME280;11603;44.910;8.630;2023-05-09T08:21:21;100741.00;;;20.68;100.00
22872;BME280;11603;44.910;8.630;2023-05-09T08:23:46;100742.81;;;20.78;100.00
22872;BME280;11603;44.910;8.630;2023-05-09T08:26:12;100735.72;;;20.85;100.00
22872;BME280;11603;44.910;8.630;2023-05-09T08:28:39;100739.78;;;21.06;100.00
22872;BME280;11603;44.910;8.630;2023-05-09T08:31:04;100738.31;;;21.12;100.00
22872;BME280;11603;44.910;8.630;2023-05-09T08:33:30;100736.47;;;21.38;100.00
22872;BME280;11603;44.910;8.630;2023-05-09T08:35:55;100736.03;;;21.51;100.00
22872;BME280;11603;44.910;8.630;2023-05-09T08:38:21;100736.56;;;21.54;100.00
22872;BME280;11603;44.910;8.630;2023-05-09T08:40:47;100729.47;;;21.70;100.00
22872;BME280;11603;44.910;8.630;2023-05-09T08:43:12;100735.41;;;21.99;100.00
22872;BME280;11603;44.910;8.630;2023-05-09T08:45:50;100731.00;;;21.98;100.00
22872;BME280;11603;44.910;8.630;2023-05-09T08:48:16;100729.41;;;21.87;100.00
22872;BME280;11603;44.910;8.630;2023-05-09T08:50:44;100727.72;;;21.94;100.00
22872;BME280;11603;44.910;8.630;2023-05-09T08:53:11;100728.13;;;22.08;100.00
22872;BME280;11603;44.910;8.630;2023-05-09T08:55:37;100726.25;;;22.16;100.00
22872;BME280;11603;44.910;8.630;2023-05-09T08:58:02;100729.66;;;22.10;100.00
22872;BME280;11603;44.910;8.630;2023-05-09T09:00:30;100718.75;;;22.02;100.00
22872;BME280;11603;44.910;8.630;2023-05-09T09:03:00;100720.00;;;21.82;100.00
22872;BME280;11603;44.910;8.630;2023-05-09T09:05:27;100715.34;;;21.66;100.00
22872;BME280;11603;44.910;8.630;2023-05-09T09:07:54;100716.84;;;21.61;100.00
22872;BME280;11603;44.910;8.630;2023-05-09T09:10:21;100721.56;;;21.50;100.00
22872;BME280;11603;44.910;8.630;2023-05-09T09:12:51;100711.16;;;21.46;100.00
22872;BME280;11603;44.910;8.630;2023-05-09T09:15:18;100711.19;;;21.54;100.00
22872;BME280;11603;44.910;8.630;2023-05-09T09:17:46;100714.41;;;21.49;100.00
22872;BME280;11603;44.910;8.630;2023-05-09T09:20:13;100715.75;;;21.45;100.00
22872;BME280;11603;44.910;8.630;2023-05-09T09:22:41;100704.75;;;21.55;100.00
22872;BME280;11603;44.910;8.630;2023-05-09T09:25:07;100705.81;;;21.36;100.00
22872;BME280;11603;44.910;8.630;2023-05-09T09:27:33;100705.81;;;21.36;100.00
22872;BME280;11603;44.910;8.630;2023-05-09T09:30:10;100714.31;;;21.33;100.00
22872;BME280;11603;44.910;8.630;2023-05-09T09:32:36;100706.38;;;21.40;100.00
22872;BME280;11603;44.910;8.630;2023-05-09T09:35:07;100700.88;;;21.32;100.00
22872;BME280;11603;44.910;8.630;2023-05-09T09:37:34;100706.78;;;21.19;100.00
22872;BME280;11603;44.910;8.630;2023-05-09T09:39:59;100701.47;;;21.18;100.00
22872;BME280;11603;44.910;8.630;2023-05-09T09:42:25;100697.25;;;20.97;100.00
22872;BME280;11603;44.910;8.630;2023-05-09T09:45:08;100689.56;;;20.93;100.00
22872;BME280;11603;44.910;8.630;2023-05-09T09:47:34;100683.75;;;20.88;100.00
22872;BME280;11603;44.910;8.630;2023-05-09T09:50:16;100682.19;;;20.85;100.00
22872;BME280;11603;44.910;8.630;2023-05-09T09:52:49;100684.97;;;20.93;100.00
22872;BME280;11603;44.910;8.630;2023-05-09T09:55:16;100685.91;;;21.10;100.00
22872;BME280;11603;44.910;8.630;2023-05-09T09:57:42;100687.88;;;21.18;100.00
22872;BME280;11603;44.910;8.630;2023-05-09T10:00:14;100678.38;;;21.22;100.00
22872;BME280;11603;44.910;8.630;2023-05-09T10:02:49;100683.03;;;21.11;100.00
22872;BME280;11603;44.910;8.630;2023-05-09T10:05:23;100677.44;;;21.13;100.00
22872;BME280;11603;44.910;8.630;2023-05-09T10:07:50;100680.56;;;21.18;100.00
22872;BME280;11603;44.910;8.630;2023-05-09T10:10:18;100673.00;;;21.30;100.00
22872;BME280;11603;44.910;8.630;2023-05-09T10:12:44;100675.50;;;21.23;100.00
22872;BME280;11603;44.910;8.630;2023-05-09T10:15:12;100674.56;;;21.40;100.00
22872;BME280;11603;44.910;8.630;2023-05-09T10:17:44;100671.25;;;21.63;100.00
22872;BME280;11603;44.910;8.630;2023-05-09T10:20:11;100680.41;;;21.95;100.00
22872;BME280;11603;44.910;8.630;2023-05-09T10:22:38;100675.50;;;22.15;100.00
22872;BME280;11603;44.910;8.630;2023-05-09T10:25:08;100665.31;;;22.17;100.00
22872;BME280;11603;44.910;8.630;2023-05-09T10:27:38;100675.84;;;22.20;100.00
22872;BME280;11603;44.910;8.630;2023-05-09T10:30:06;100665.47;;;22.32;100.00
22872;BME280;11603;44.910;8.630;2023-05-09T10:32:46;100659.34;;;22.46;100.00
22872;BME280;11603;44.910;8.630;2023-05-09T10:35:15;100652.34;;;22.68;100.00
22872;BME280;11603;44.910;8.630;2023-05-09T10:37:42;100647.28;;;22.81;100.00
22872;BME280;11603;44.910;8.630;2023-05-09T10:40:09;100642.09;;;23.10;100.00
22872;BME280;11603;44.910;8.630;2023-05-09T10:42:40;100639.31;;;23.27;100.00
22872;BME280;11603;44.910;8.630;2023-05-09T10:45:07;100634.00;;;23.25;100.00
22872;BME280;11603;44.910;8.630;2023-05-09T10:47:34;100625.53;;;23.12;100.00
22872;BME280;11603;44.910;8.630;2023-05-09T10:50:00;100618.91;;;22.98;100.00
22872;BME280;11603;44.910;8.630;2023-05-09T10:52:30;100619.13;;;22.89;100.00
22872;BME280;11603;44.910;8.630;2023-05-09T10:55:01;100611.94;;;22.88;100.00
22872;BME280;11603;44.910;8.630;2023-05-09T10:57:29;100599.31;;;22.95;100.00
22872;BME280;11603;44.910;8.630;2023-05-09T10:59:55;100598.56;;;23.17;100.00
22872;BME280;11603;44.910;8.630;2023-05-09T11:02:21;100596.09;;;23.38;100.00
22872;BME280;11603;44.910;8.630;2023-05-09T11:05:17;100591.47;;;23.78;100.00
22872;BME280;11603;44.910;8.630;2023-05-09T11:07:43;100579.53;;;24.01;100.00
22872;BME280;11603;44.910;8.630;2023-05-09T11:10:15;100577.34;;;23.97;100.00
22872;BME280;11603;44.910;8.630;2023-05-09T11:12:58;100581.03;;;23.81;100.00
22872;BME280;11603;44.910;8.630;2023-05-09T11:15:24;100573.81;;;23.88;100.00
22872;BME280;11603;44.910;8.630;2023-05-09T11:18:09;100573.97;;;23.87;100.00
22872;BME280;11603;44.910;8.630;2023-05-09T11:20:35;100567.66;;;24.09;100.00
22872;BME280;11603;44.910;8.630;2023-05-09T11:23:07;100567.38;;;24.04;100.00
22872;BME280;11603;44.910;8.630;2023-05-09T11:25:33;100565.91;;;24.16;100.00
22872;BME280;11603;44.910;8.630;2023-05-09T11:28:02;100548.44;;;24.25;100.00
22872;BME280;11603;44.910;8.630;2023-05-09T11:30:41;100547.50;;;24.10;100.00
22872;BME280;11603;44.910;8.630;2023-05-09T11:33:21;100536.09;;;24.06;100.00
22872;BME280;11603;44.910;8.630;2023-05-09T11:35:47;100536.69;;;24.17;100.00
22872;BME280;11603;44.910;8.630;2023-05-09T11:38:42;100526.38;;;24.04;100.00
22872;BME280;11603;44.910;8.630;2023-05-09T11:41:08;100527.41;;;24.03;100.00
22872;BME280;11603;44.910;8.630;2023-05-09T11:43:37;100515.63;;;24.25;100.00
22872;BME280;11603;44.910;8.630;2023-05-09T11:46:04;100512.78;;;24.19;100.00
22872;BME280;11603;44.910;8.630;2023-05-09T11:48:29;100508.69;;;24.15;100.00
22872;BME280;11603;44.910;8.630;2023-05-09T11:50:55;100508.28;;;24.03;100.00
22872;BME280;11603;44.910;8.630;2023-05-09T11:53:21;100506.22;;;24.05;100.00
22872;BME280;11603;44.910;8.630;2023-05-09T11:55:47;100505.75;;;24.39;100.00
22872;BME280;11603;44.910;8.630;2023-05-09T11:58:13;100498.59;;;24.53;100.00
22872;BME280;11603;44.910;8.630;2023-05-09T12:00:45;100492.47;;;24.80;100.00
22872;BME280;11603;44.910;8.630;2023-05-09T12:03:11;100485.50;;;25.07;100.00
22872;BME280;11603;44.910;8.630;2023-05-09T12:05:37;100490.06;;;25.21;100.00
22872;BME280;11603;44.910;8.630;2023-05-09T12:08:07;100474.78;;;25.26;100.00
22872;BME280;11603;44.910;8.630;2023-05-09T12:10:36;100480.63;;;25.23;100.00
22872;BME280;11603;44.910;8.630;2023-05-09T12:13:03;100479.66;;;24.95;100.00
22872;BME280;11603;44.910;8.630;2023-05-09T12:15:28;100482.19;;;24.67;100.00
22872;BME280;11603;44.910;8.630;2023-05-09T12:18:03;100467.72;;;25.03;100.00
22872;BME280;11603;44.910;8.630;2023-05-09T12:20:42;100469.91;;;24.78;100.00
22872;BME280;11603;44.910;8.630;2023-05-09T12:23:12;100457.50;;;25.26;100.00
22872;BME280;11603;44.910;8.630;2023-05-09T12:25:45;100451.81;;;25.63;100.00
22872;BME280;11603;44.910;8.630;2023-05-09T12:28:11;100449.50;;;25.67;100.00
22872;BME280;11603;44.910;8.630;2023-05-09T12:30:37;100449.94;;;25.49;100.00
22872;BME280;11603;44.910;8.630;2023-05-09T12:33:03;100441.53;;;25.51;100.00
22872;BME280;11603;44.910;8.630;2023-05-09T12:35:28;100439.75;;;25.58;100.00
22872;BME280;11603;44.910;8.630;2023-05-09T12:37:55;100439.34;;;25.61;99.01
22872;BME280;11603;44.910;8.630;2023-05-09T12:40:24;100425.63;;;25.82;97.62
22872;BME280;11603;44.910;8.630;2023-05-09T12:42:49;100424.75;;;26.31;94.00
22872;BME280;11603;44.910;8.630;2023-05-09T12:45:19;100422.94;;;26.17;95.43
22872;BME280;11603;44.910;8.630;2023-05-09T12:48:03;100412.16;;;25.87;96.29
22872;BME280;11603;44.910;8.630;2023-05-09T12:50:32;100403.47;;;25.56;96.86